createdAt,value
2017-03-07T00:00:09.180Z,0
2017-03-07T00:01:09.193Z,0
2017-03-07T00:02:08.688Z,0
2017-03-07T00:03:09.199Z,0
2017-03-07T00:04:09.177Z,0
2017-03-07T00:05:08.413Z,0
2017-03-07T00:06:09.206Z,0
2017-03-07T00:07:08.967Z,0
2017-03-07T00:08:08.815Z,0
2017-03-07T00:09:09.224Z,0
2017-03-07T00:10:08.614Z,0
2017-03-07T00:11:08.487Z,0
2017-03-07T00:12:09.209Z,0
2017-03-07T00:13:09.238Z,0
2017-03-07T00:14:09.253Z,0
2017-03-07T00:15:09.047Z,0
2017-03-07T00:16:09.451Z,0
2017-03-07T00:17:09.360Z,0
2017-03-07T00:18:09.378Z,0
2017-03-07T00:19:09.349Z,0
2017-03-07T00:20:09.050Z,0
2017-03-07T00:21:10.760Z,0
2017-03-07T00:22:09.378Z,0
2017-03-07T00:23:09.402Z,0
2017-03-07T00:24:09.062Z,0
2017-03-07T00:25:08.700Z,0
2017-03-07T00:26:09.024Z,0
2017-03-07T00:27:09.049Z,0
2017-03-07T00:28:08.687Z,0
2017-03-07T00:29:09.091Z,0
2017-03-07T00:30:09.107Z,0
2017-03-07T00:31:09.501Z,0
2017-03-07T00:32:09.531Z,0
2017-03-07T00:33:08.739Z,0
2017-03-07T00:34:08.776Z,0
2017-03-07T00:35:09.571Z,0
2017-03-07T00:36:08.863Z,0
2017-03-07T00:37:08.782Z,0
2017-03-07T00:38:09.775Z,0
2017-03-07T00:39:09.475Z,0
2017-03-07T00:40:09.486Z,0
2017-03-07T00:41:09.726Z,0
2017-03-07T00:42:09.747Z,0
2017-03-07T00:43:08.963Z,0
2017-03-07T00:44:08.974Z,0
2017-03-07T00:45:09.491Z,0
2017-03-07T00:46:09.022Z,0
2017-03-07T00:47:09.845Z,0
2017-03-07T00:48:09.819Z,0
2017-03-07T00:49:09.798Z,0
2017-03-07T00:50:09.793Z,0
2017-03-07T00:51:09.803Z,0
2017-03-07T00:52:09.572Z,0
2017-03-07T00:53:09.815Z,0
2017-03-07T00:54:09.472Z,0
2017-03-07T00:55:09.842Z,0
2017-03-07T00:56:09.873Z,0
2017-03-07T00:57:09.879Z,0
2017-03-07T00:58:09.890Z,0
2017-03-07T00:59:09.931Z,0
2017-03-07T01:00:09.991Z,0
2017-03-07T01:01:10.042Z,0
2017-03-07T01:02:09.964Z,0
2017-03-07T01:03:09.963Z,0
2017-03-07T01:04:09.582Z,0
2017-03-07T01:05:09.986Z,0
2017-03-07T01:06:10.036Z,0
2017-03-07T01:07:09.723Z,0
2017-03-07T01:08:10.038Z,0
2017-03-07T01:09:10.054Z,0
2017-03-07T01:10:09.679Z,0
2017-03-07T01:11:10.097Z,0
2017-03-07T01:12:10.113Z,0
2017-03-07T01:13:10.130Z,0
2017-03-07T01:14:10.147Z,0
2017-03-07T01:15:09.753Z,0
2017-03-07T01:16:09.782Z,0
2017-03-07T01:17:10.201Z,0
2017-03-07T01:18:10.217Z,0
2017-03-07T01:19:10.469Z,0
2017-03-07T01:20:10.287Z,0
2017-03-07T01:21:10.251Z,0
2017-03-07T01:22:09.901Z,0
2017-03-07T01:23:10.781Z,0
2017-03-07T01:24:10.282Z,0
2017-03-07T01:25:10.312Z,0
2017-03-07T01:26:10.315Z,0
2017-03-07T01:27:10.330Z,0
2017-03-07T01:28:09.941Z,0
2017-03-07T01:29:10.365Z,0
2017-03-07T01:30:10.371Z,0
2017-03-07T01:31:10.398Z,0
2017-03-07T01:32:10.013Z,0
2017-03-07T01:33:10.490Z,0
2017-03-07T01:34:10.044Z,0
2017-03-07T01:35:10.456Z,0
2017-03-07T01:36:10.063Z,0
2017-03-07T01:37:10.490Z,0
2017-03-07T01:38:10.101Z,0
2017-03-07T01:39:10.522Z,0
2017-03-07T01:40:10.126Z,0
2017-03-07T01:41:10.568Z,0
2017-03-07T01:42:10.586Z,0
2017-03-07T01:43:10.571Z,0
2017-03-07T01:44:10.202Z,0
2017-03-07T01:45:10.606Z,0
2017-03-07T01:46:10.615Z,0
2017-03-07T01:47:10.244Z,0
2017-03-07T01:48:10.662Z,0
2017-03-07T01:49:10.664Z,0
2017-03-07T01:50:09.908Z,0
2017-03-07T01:51:10.700Z,0
2017-03-07T01:52:10.734Z,0
2017-03-07T01:53:10.738Z,0
2017-03-07T01:54:10.353Z,0
2017-03-07T01:55:10.779Z,0
2017-03-07T01:56:10.495Z,0
2017-03-07T01:57:10.786Z,0
2017-03-07T01:58:10.818Z,0
2017-03-07T01:59:10.832Z,0
2017-03-07T02:00:10.850Z,0
2017-03-07T02:01:10.849Z,0
2017-03-07T02:02:10.862Z,0
2017-03-07T02:03:10.883Z,0
2017-03-07T02:04:10.529Z,0
2017-03-07T02:05:10.947Z,0
2017-03-07T02:06:10.551Z,0
2017-03-07T02:07:10.548Z,0
2017-03-07T02:08:10.160Z,0
2017-03-07T02:09:10.976Z,0
2017-03-07T02:10:10.992Z,0
2017-03-07T02:11:11.007Z,0
2017-03-07T02:12:10.218Z,0
2017-03-07T02:13:11.026Z,0
2017-03-07T02:14:11.042Z,0
2017-03-07T02:15:11.079Z,0
2017-03-07T02:16:11.077Z,0
2017-03-07T02:17:11.262Z,0
2017-03-07T02:18:10.732Z,0
2017-03-07T02:19:11.245Z,0
2017-03-07T02:20:10.757Z,0
2017-03-07T02:21:11.261Z,0
2017-03-07T02:22:10.787Z,0
2017-03-07T02:23:11.280Z,0
2017-03-07T02:24:10.802Z,0
2017-03-07T02:25:11.315Z,0
2017-03-07T02:26:11.322Z,0
2017-03-07T02:27:11.327Z,0
2017-03-07T02:28:11.337Z,0
2017-03-07T02:29:11.336Z,0
2017-03-07T02:30:11.404Z,0
2017-03-07T02:31:11.414Z,0
2017-03-07T02:32:11.423Z,0
2017-03-07T02:33:11.421Z,0
2017-03-07T02:34:11.430Z,0
2017-03-07T02:35:11.439Z,0
2017-03-07T02:36:11.446Z,0
2017-03-07T02:37:11.002Z,0
2017-03-07T02:38:11.457Z,0
2017-03-07T02:39:11.463Z,0
2017-03-07T02:40:11.510Z,0
2017-03-07T02:41:11.072Z,0
2017-03-07T02:42:11.530Z,0
2017-03-07T02:43:11.600Z,0
2017-03-07T02:44:11.112Z,0
2017-03-07T02:45:11.615Z,0
2017-03-07T02:46:11.267Z,0
2017-03-07T02:47:12.094Z,0
2017-03-07T02:48:11.652Z,0
2017-03-07T02:49:11.701Z,0
2017-03-07T02:50:11.831Z,0
2017-03-07T02:51:11.323Z,0
2017-03-07T02:52:11.318Z,0
2017-03-07T02:53:11.758Z,0
2017-03-07T02:54:11.764Z,0
2017-03-07T02:55:12.260Z,0
2017-03-07T02:56:12.087Z,0
2017-03-07T02:57:12.060Z,0
2017-03-07T02:58:11.923Z,0
2017-03-07T02:59:11.932Z,0
2017-03-07T03:00:11.941Z,0
2017-03-07T03:01:12.058Z,0
2017-03-07T03:02:11.957Z,0
2017-03-07T03:03:11.965Z,0
2017-03-07T03:04:11.971Z,0
2017-03-07T03:05:11.934Z,0
2017-03-07T03:06:11.922Z,0
2017-03-07T03:07:11.930Z,0
2017-03-07T03:08:11.548Z,0
2017-03-07T03:09:11.995Z,0
2017-03-07T03:10:11.372Z,0
2017-03-07T03:11:12.007Z,0
2017-03-07T03:12:12.016Z,0
2017-03-07T03:13:12.013Z,0
2017-03-07T03:14:12.004Z,0
2017-03-07T03:15:12.032Z,0
2017-03-07T03:16:12.019Z,0
2017-03-07T03:17:12.085Z,0
2017-03-07T03:18:11.722Z,0
2017-03-07T03:19:12.139Z,0
2017-03-07T03:20:12.035Z,0
2017-03-07T03:21:12.080Z,0
2017-03-07T03:22:12.057Z,0
2017-03-07T03:23:12.083Z,0
2017-03-07T03:24:12.108Z,0
2017-03-07T03:25:12.223Z,0
2017-03-07T03:26:12.156Z,0
2017-03-07T03:27:12.593Z,0
2017-03-07T03:28:12.212Z,0
2017-03-07T03:29:12.172Z,0
2017-03-07T03:30:12.198Z,0
2017-03-07T03:31:11.940Z,0
2017-03-07T03:32:12.330Z,0
2017-03-07T03:33:12.642Z,0
2017-03-07T03:34:12.242Z,0
2017-03-07T03:35:12.274Z,0
2017-03-07T03:36:12.298Z,0
2017-03-07T03:37:12.304Z,0
2017-03-07T03:38:11.955Z,0
2017-03-07T03:39:12.327Z,0
2017-03-07T03:40:11.955Z,0
2017-03-07T03:41:12.357Z,0
2017-03-07T03:42:12.061Z,0
2017-03-07T03:43:12.379Z,0
2017-03-07T03:44:12.434Z,0
2017-03-07T03:45:12.408Z,0
2017-03-07T03:46:12.426Z,0
2017-03-07T03:47:12.516Z,0
2017-03-07T03:48:12.480Z,0
2017-03-07T03:49:12.476Z,0
2017-03-07T03:50:12.658Z,0
2017-03-07T03:51:12.670Z,0
2017-03-07T03:52:12.965Z,0
2017-03-07T03:53:12.930Z,0
2017-03-07T03:54:12.964Z,0
2017-03-07T03:55:12.820Z,0
2017-03-07T03:56:12.680Z,0
2017-03-07T03:57:13.055Z,0
2017-03-07T03:58:12.566Z,0
2017-03-07T03:59:13.018Z,0
2017-03-07T04:00:12.864Z,0
2017-03-07T04:01:12.796Z,0
2017-03-07T04:02:12.687Z,0
2017-03-07T04:03:12.834Z,0
2017-03-07T04:04:12.439Z,0
2017-03-07T04:05:12.722Z,0
2017-03-07T04:06:12.403Z,0
2017-03-07T04:07:12.761Z,0
2017-03-07T04:08:12.750Z,0
2017-03-07T04:09:12.846Z,0
2017-03-07T04:10:12.773Z,0
2017-03-07T04:11:12.807Z,0
2017-03-07T04:12:13.152Z,0
2017-03-07T04:13:13.094Z,0
2017-03-07T04:14:12.607Z,0
2017-03-07T04:15:13.030Z,0
2017-03-07T04:16:12.871Z,0
2017-03-07T04:17:12.899Z,0
2017-03-07T04:18:12.896Z,0
2017-03-07T04:19:12.918Z,0
2017-03-07T04:20:12.944Z,0
2017-03-07T04:21:12.954Z,0
2017-03-07T04:22:12.944Z,0
2017-03-07T04:23:12.996Z,0
2017-03-07T04:24:12.997Z,0
2017-03-07T04:25:12.602Z,0
2017-03-07T04:26:13.015Z,0
2017-03-07T04:27:13.098Z,0
2017-03-07T04:28:13.117Z,0
2017-03-07T04:29:13.060Z,0
2017-03-07T04:30:12.274Z,0
2017-03-07T04:31:13.105Z,0
2017-03-07T04:32:12.708Z,0
2017-03-07T04:33:12.745Z,0
2017-03-07T04:34:13.135Z,0
2017-03-07T04:35:13.200Z,0
2017-03-07T04:36:13.164Z,0
2017-03-07T04:37:13.567Z,0
2017-03-07T04:38:13.198Z,0
2017-03-07T04:39:13.487Z,0
2017-03-07T04:40:13.607Z,0
2017-03-07T04:41:13.252Z,0
2017-03-07T04:42:13.268Z,0
2017-03-07T04:43:13.875Z,0
2017-03-07T04:44:13.722Z,0
2017-03-07T04:45:13.722Z,0
2017-03-07T04:46:13.463Z,0
2017-03-07T04:47:13.588Z,0
2017-03-07T04:48:13.754Z,0
2017-03-07T04:49:13.514Z,0
2017-03-07T04:50:13.332Z,0
2017-03-07T04:51:13.926Z,0
2017-03-07T04:52:13.866Z,0
2017-03-07T04:53:13.447Z,0
2017-03-07T04:54:13.626Z,0
2017-03-07T04:55:13.597Z,0
2017-03-07T04:56:13.807Z,0
2017-03-07T04:57:13.384Z,0
2017-03-07T04:58:13.716Z,0
2017-03-07T04:59:13.608Z,0
2017-03-07T05:00:12.958Z,0
2017-03-07T05:01:14.150Z,0
2017-03-07T05:02:13.512Z,0
2017-03-07T05:03:13.805Z,0
2017-03-07T05:04:13.569Z,0
2017-03-07T05:05:13.215Z,0
2017-03-07T05:06:13.227Z,0
2017-03-07T05:07:13.628Z,0
2017-03-07T05:08:13.627Z,0
2017-03-07T05:09:13.652Z,0
2017-03-07T05:10:13.639Z,0
2017-03-07T05:11:13.662Z,0
2017-03-07T05:12:13.670Z,0
2017-03-07T05:13:13.684Z,0
2017-03-07T05:14:13.387Z,0
2017-03-07T05:15:13.721Z,0
2017-03-07T05:16:13.742Z,0
2017-03-07T05:17:13.739Z,0
2017-03-07T05:18:13.752Z,0
2017-03-07T05:19:13.782Z,0
2017-03-07T05:20:13.792Z,0
2017-03-07T05:21:13.861Z,0
2017-03-07T05:22:13.821Z,0
2017-03-07T05:23:13.835Z,0
2017-03-07T05:24:13.841Z,0
2017-03-07T05:25:13.889Z,0
2017-03-07T05:26:13.886Z,0
2017-03-07T05:27:13.506Z,0
2017-03-07T05:28:13.992Z,0
2017-03-07T05:29:13.915Z,0
2017-03-07T05:30:13.932Z,0
2017-03-07T05:31:13.698Z,0
2017-03-07T05:32:13.984Z,0
2017-03-07T05:33:14.449Z,0
2017-03-07T05:34:14.281Z,0
2017-03-07T05:35:13.721Z,0
2017-03-07T05:36:13.997Z,0
2017-03-07T05:37:14.160Z,0
2017-03-07T05:38:14.334Z,0
2017-03-07T05:39:14.220Z,0
2017-03-07T05:40:14.169Z,0
2017-03-07T05:41:13.830Z,0
2017-03-07T05:42:14.600Z,0
2017-03-07T05:43:14.412Z,0
2017-03-07T05:44:14.623Z,0
2017-03-07T05:45:14.410Z,0
2017-03-07T05:46:14.432Z,0
2017-03-07T05:47:14.788Z,0
2017-03-07T05:48:14.599Z,0
2017-03-07T05:49:14.227Z,0
2017-03-07T05:50:13.997Z,0
2017-03-07T05:51:13.831Z,0
2017-03-07T05:52:14.365Z,0
2017-03-07T05:53:14.378Z,0
2017-03-07T05:54:14.377Z,0
2017-03-07T05:55:13.986Z,0
2017-03-07T05:56:14.530Z,0
2017-03-07T05:57:14.394Z,0
2017-03-07T05:58:14.556Z,0
2017-03-07T05:59:14.565Z,0
2017-03-07T06:00:14.601Z,0
2017-03-07T06:01:14.782Z,0
2017-03-07T06:02:14.580Z,0
2017-03-07T06:03:14.569Z,0
2017-03-07T06:04:14.604Z,0
2017-03-07T06:05:14.515Z,0
2017-03-07T06:06:14.648Z,0
2017-03-07T06:07:14.662Z,0
2017-03-07T06:08:14.153Z,0
2017-03-07T06:09:14.674Z,0
2017-03-07T06:10:14.170Z,0
2017-03-07T06:11:14.686Z,0
2017-03-07T06:12:14.696Z,0
2017-03-07T06:13:14.704Z,0
2017-03-07T06:14:14.713Z,0
2017-03-07T06:15:14.722Z,0
2017-03-07T06:16:14.273Z,0
2017-03-07T06:17:14.728Z,0
2017-03-07T06:18:14.716Z,0
2017-03-07T06:19:14.716Z,0
2017-03-07T06:20:14.334Z,0
2017-03-07T06:21:14.727Z,0
2017-03-07T06:22:14.738Z,0
2017-03-07T06:23:14.363Z,0
2017-03-07T06:24:14.382Z,0
2017-03-07T06:25:14.391Z,0
2017-03-07T06:26:13.547Z,0
2017-03-07T06:27:14.780Z,0
2017-03-07T06:28:14.391Z,0
2017-03-07T06:29:14.783Z,0
2017-03-07T06:30:14.374Z,0
2017-03-07T06:31:14.784Z,0
2017-03-07T06:32:14.801Z,0
2017-03-07T06:33:14.825Z,0
2017-03-07T06:34:14.835Z,0
2017-03-07T06:35:14.858Z,0
2017-03-07T06:36:14.871Z,0
2017-03-07T06:37:14.892Z,0
2017-03-07T06:38:14.907Z,0
2017-03-07T06:39:14.915Z,0
2017-03-07T06:40:14.952Z,0
2017-03-07T06:41:14.954Z,0
2017-03-07T06:42:14.951Z,0
2017-03-07T06:43:14.968Z,0
2017-03-07T06:44:14.966Z,0
2017-03-07T06:45:14.977Z,0
2017-03-07T06:46:14.305Z,0
2017-03-07T06:47:14.729Z,0
2017-03-07T06:48:15.034Z,0
2017-03-07T06:49:15.049Z,0
2017-03-07T06:50:15.050Z,0
2017-03-07T06:51:15.077Z,0
2017-03-07T06:52:15.123Z,5
2017-03-07T06:53:15.105Z,0
2017-03-07T06:54:15.123Z,5
2017-03-07T06:55:15.122Z,5
2017-03-07T06:56:15.131Z,5
2017-03-07T06:57:15.172Z,5
2017-03-07T06:58:15.217Z,5
2017-03-07T06:59:15.181Z,5
2017-03-07T07:00:15.187Z,5
2017-03-07T07:01:14.835Z,5
2017-03-07T07:02:15.231Z,5
2017-03-07T07:03:15.253Z,5
2017-03-07T07:04:15.247Z,0
2017-03-07T07:05:15.264Z,0
2017-03-07T07:06:15.279Z,0
2017-03-07T07:07:15.278Z,0
2017-03-07T07:08:15.317Z,0
2017-03-07T07:09:15.332Z,0
2017-03-07T07:10:15.345Z,0
2017-03-07T07:11:15.336Z,0
2017-03-07T07:12:15.357Z,0
2017-03-07T07:13:15.403Z,0
2017-03-07T07:14:15.378Z,0
2017-03-07T07:15:15.412Z,0
2017-03-07T07:16:15.427Z,0
2017-03-07T07:17:15.421Z,0
2017-03-07T07:18:15.454Z,0
2017-03-07T07:19:15.482Z,5
2017-03-07T07:20:15.068Z,0
2017-03-07T07:21:15.488Z,0
2017-03-07T07:22:15.488Z,0
2017-03-07T07:23:15.509Z,0
2017-03-07T07:24:15.508Z,0
2017-03-07T07:25:15.549Z,0
2017-03-07T07:26:15.177Z,0
2017-03-07T07:27:15.584Z,0
2017-03-07T07:28:15.605Z,0
2017-03-07T07:29:15.216Z,0
2017-03-07T07:30:15.608Z,0
2017-03-07T07:31:15.669Z,0
2017-03-07T07:32:15.646Z,0
2017-03-07T07:33:15.646Z,0
2017-03-07T07:34:15.672Z,0
2017-03-07T07:35:15.669Z,0
2017-03-07T07:36:15.307Z,0
2017-03-07T07:37:15.692Z,0
2017-03-07T07:38:15.722Z,0
2017-03-07T07:39:15.741Z,0
2017-03-07T07:40:15.768Z,0
2017-03-07T07:41:15.757Z,0
2017-03-07T07:42:15.374Z,0
2017-03-07T07:43:15.811Z,0
2017-03-07T07:44:15.798Z,0
2017-03-07T07:45:15.838Z,0
2017-03-07T07:46:15.841Z,0
2017-03-07T07:47:15.831Z,0
2017-03-07T07:48:15.843Z,0
2017-03-07T07:49:15.474Z,0
2017-03-07T07:50:15.884Z,5
2017-03-07T07:51:15.899Z,5
2017-03-07T07:52:15.915Z,5
2017-03-07T07:53:15.917Z,5
2017-03-07T07:54:15.934Z,5
2017-03-07T07:55:15.962Z,5
2017-03-07T07:56:15.973Z,5
2017-03-07T07:57:15.979Z,5
2017-03-07T07:58:16.005Z,5
2017-03-07T07:59:16.007Z,5
2017-03-07T08:00:16.033Z,5
2017-03-07T08:01:16.044Z,5
2017-03-07T08:02:16.041Z,5
2017-03-07T08:03:16.077Z,5
2017-03-07T08:04:16.168Z,5
2017-03-07T08:05:16.135Z,0
2017-03-07T08:06:16.523Z,0
2017-03-07T08:07:16.182Z,5
2017-03-07T08:08:15.822Z,5
2017-03-07T08:09:16.222Z,0
2017-03-07T08:10:16.255Z,0
2017-03-07T08:11:16.271Z,5
2017-03-07T08:12:15.907Z,5
2017-03-07T08:13:16.261Z,5
2017-03-07T08:14:16.224Z,5
2017-03-07T08:15:16.341Z,5
2017-03-07T08:16:16.229Z,5
2017-03-07T08:17:16.254Z,5
2017-03-07T08:18:16.259Z,5
2017-03-07T08:19:16.266Z,5
2017-03-07T08:20:16.289Z,5
2017-03-07T08:21:16.299Z,5
2017-03-07T08:22:15.991Z,5
2017-03-07T08:23:16.336Z,5
2017-03-07T08:24:16.351Z,5
2017-03-07T08:25:16.351Z,5
2017-03-07T08:26:16.383Z,5
2017-03-07T08:27:16.396Z,5
2017-03-07T08:28:16.403Z,5
2017-03-07T08:29:16.417Z,5
2017-03-07T08:30:16.425Z,5
2017-03-07T08:31:15.246Z,5
2017-03-07T08:32:16.462Z,5
2017-03-07T08:33:16.064Z,5
2017-03-07T08:34:16.523Z,5
2017-03-07T08:35:16.492Z,5
2017-03-07T08:36:16.113Z,5
2017-03-07T08:37:16.516Z,5
2017-03-07T08:38:16.550Z,5
2017-03-07T08:39:16.559Z,5
2017-03-07T08:40:16.174Z,5
2017-03-07T08:41:16.237Z,10
2017-03-07T08:42:16.578Z,10
2017-03-07T08:43:16.621Z,10
2017-03-07T08:44:16.609Z,10
2017-03-07T08:45:16.628Z,10
2017-03-07T08:46:16.251Z,10
2017-03-07T08:47:16.322Z,10
2017-03-07T08:48:16.312Z,10
2017-03-07T08:49:16.689Z,10
2017-03-07T08:50:15.908Z,10
2017-03-07T08:51:16.303Z,10
2017-03-07T08:52:16.723Z,10
2017-03-07T08:53:16.733Z,15
2017-03-07T08:54:17.211Z,10
2017-03-07T08:55:16.769Z,10
2017-03-07T08:56:16.816Z,10
2017-03-07T08:57:16.787Z,10
2017-03-07T08:58:16.804Z,10
2017-03-07T08:59:16.837Z,10
2017-03-07T09:00:16.822Z,10
2017-03-07T09:01:16.454Z,10
2017-03-07T09:02:16.862Z,10
2017-03-07T09:03:16.876Z,10
2017-03-07T09:04:16.900Z,10
2017-03-07T09:05:16.905Z,5
2017-03-07T09:06:16.916Z,5
2017-03-07T09:07:16.936Z,5
2017-03-07T09:08:16.934Z,5
2017-03-07T09:09:16.553Z,5
2017-03-07T09:12:23.667Z,5
2017-03-07T09:12:34.031Z,5
2017-03-07T09:13:34.437Z,5
2017-03-07T09:14:34.040Z,5
2017-03-07T09:15:34.460Z,5
2017-03-07T09:16:34.463Z,5
2017-03-07T09:17:34.504Z,5
2017-03-07T09:18:34.113Z,5
2017-03-07T09:19:34.130Z,5
2017-03-07T09:20:34.550Z,5
2017-03-07T09:21:34.548Z,10
2017-03-07T09:22:34.562Z,10
2017-03-07T09:23:34.599Z,5
2017-03-07T09:24:34.187Z,10
2017-03-07T09:25:34.607Z,10
2017-03-07T09:26:34.602Z,10
2017-03-07T09:27:34.676Z,10
2017-03-07T09:28:34.630Z,10
2017-03-07T09:29:34.659Z,10
2017-03-07T09:30:34.668Z,10
2017-03-07T09:31:34.683Z,10
2017-03-07T09:32:34.741Z,10
2017-03-07T09:33:34.788Z,10
2017-03-07T09:34:34.797Z,10
2017-03-07T09:35:34.332Z,10
2017-03-07T09:36:34.854Z,10
2017-03-07T09:37:34.820Z,10
2017-03-07T09:38:34.841Z,10
2017-03-07T09:39:34.925Z,10
2017-03-07T09:40:34.933Z,10
2017-03-07T09:41:34.981Z,10
2017-03-07T09:42:34.433Z,10
2017-03-07T09:43:34.951Z,15
2017-03-07T09:44:34.962Z,15
2017-03-07T09:45:34.967Z,15
2017-03-07T09:46:34.969Z,15
2017-03-07T09:47:34.982Z,15
2017-03-07T09:48:35.237Z,15
2017-03-07T09:49:34.620Z,15
2017-03-07T09:50:35.024Z,15
2017-03-07T09:51:34.246Z,15
2017-03-07T09:52:35.064Z,15
2017-03-07T09:53:35.051Z,15
2017-03-07T09:54:35.059Z,15
2017-03-07T09:55:35.015Z,20
2017-03-07T09:56:35.023Z,15
2017-03-07T09:57:35.038Z,20
2017-03-07T09:58:35.064Z,15
2017-03-07T09:59:35.060Z,15
2017-03-07T10:00:34.839Z,10
2017-03-07T10:01:35.084Z,10
2017-03-07T10:02:35.110Z,15
2017-03-07T10:03:35.100Z,15
2017-03-07T10:04:35.155Z,20
2017-03-07T10:05:35.144Z,20
2017-03-07T10:06:35.177Z,20
2017-03-07T10:07:35.170Z,20
2017-03-07T10:08:35.181Z,20
2017-03-07T10:09:35.216Z,20
2017-03-07T10:10:35.229Z,15
2017-03-07T10:11:35.224Z,10
2017-03-07T10:12:35.277Z,10
2017-03-07T10:13:35.015Z,10
2017-03-07T10:14:35.321Z,5
2017-03-07T10:15:35.279Z,10
2017-03-07T10:16:35.290Z,10
2017-03-07T10:17:35.330Z,10
2017-03-07T10:18:35.356Z,5
2017-03-07T10:19:35.342Z,5
2017-03-07T10:20:35.354Z,5
2017-03-07T10:21:34.995Z,5
2017-03-07T10:22:35.373Z,5
2017-03-07T10:23:35.415Z,5
2017-03-07T10:24:35.048Z,5
2017-03-07T10:25:35.426Z,5
2017-03-07T10:26:35.414Z,10
2017-03-07T10:27:35.435Z,10
2017-03-07T10:28:35.048Z,10
2017-03-07T10:29:35.064Z,10
2017-03-07T10:30:35.480Z,5
2017-03-07T10:31:35.519Z,5
2017-03-07T10:32:35.107Z,5
2017-03-07T10:33:35.534Z,5
2017-03-07T10:34:35.553Z,10
2017-03-07T10:35:35.180Z,10
2017-03-07T10:36:35.563Z,15
2017-03-07T10:37:35.575Z,20
2017-03-07T10:38:35.595Z,20
2017-03-07T10:39:35.603Z,25
2017-03-07T10:40:35.233Z,15
2017-03-07T10:41:35.646Z,10
2017-03-07T10:42:35.643Z,15
2017-03-07T10:43:35.659Z,15
2017-03-07T10:44:35.676Z,15
2017-03-07T10:45:35.711Z,15
2017-03-07T10:46:35.298Z,10
2017-03-07T10:47:35.720Z,10
2017-03-07T10:48:35.727Z,15
2017-03-07T10:49:35.744Z,25
2017-03-07T10:50:35.774Z,30
2017-03-07T10:51:35.781Z,35
2017-03-07T10:52:35.791Z,25
2017-03-07T10:53:35.814Z,20
2017-03-07T10:54:35.801Z,20
2017-03-07T10:55:35.827Z,20
2017-03-07T10:56:35.438Z,25
2017-03-07T10:57:35.967Z,25
2017-03-07T10:58:35.917Z,25
2017-03-07T10:59:35.899Z,25
2017-03-07T11:00:35.918Z,20
2017-03-07T11:01:35.909Z,15
2017-03-07T11:02:35.911Z,15
2017-03-07T11:03:35.961Z,15
2017-03-07T11:04:35.938Z,10
2017-03-07T11:05:35.971Z,10
2017-03-07T11:06:35.985Z,10
2017-03-07T11:07:35.992Z,10
2017-03-07T11:08:36.003Z,10
2017-03-07T11:09:35.234Z,15
2017-03-07T11:10:36.028Z,10
2017-03-07T11:11:36.069Z,10
2017-03-07T11:12:36.051Z,10
2017-03-07T11:13:36.079Z,10
2017-03-07T11:14:35.695Z,15
2017-03-07T11:15:36.166Z,20
2017-03-07T11:16:36.118Z,20
2017-03-07T11:17:36.134Z,20
2017-03-07T11:18:35.757Z,20
2017-03-07T11:19:36.216Z,20
2017-03-07T11:20:36.183Z,15
2017-03-07T11:21:36.182Z,15
2017-03-07T11:22:36.199Z,15
2017-03-07T11:23:35.822Z,20
2017-03-07T11:24:36.230Z,20
2017-03-07T11:25:35.917Z,20
2017-03-07T11:26:36.305Z,20
2017-03-07T11:27:35.893Z,20
2017-03-07T11:28:36.286Z,20
2017-03-07T11:29:35.937Z,20
2017-03-07T11:30:36.311Z,25
2017-03-07T11:31:36.333Z,20
2017-03-07T11:32:36.328Z,20
2017-03-07T11:33:36.363Z,20
2017-03-07T11:34:36.417Z,20
2017-03-07T11:35:35.983Z,20
2017-03-07T11:36:36.408Z,20
2017-03-07T11:37:36.008Z,15
2017-03-07T11:38:36.424Z,15
2017-03-07T11:39:36.073Z,15
2017-03-07T11:40:36.463Z,15
2017-03-07T11:41:36.468Z,15
2017-03-07T11:42:36.508Z,15
2017-03-07T11:43:36.484Z,15
2017-03-07T11:44:36.510Z,15
2017-03-07T11:45:36.636Z,15
2017-03-07T11:46:36.661Z,15
2017-03-07T11:47:36.656Z,15
2017-03-07T11:48:36.661Z,15
2017-03-07T11:49:36.672Z,15
2017-03-07T11:50:36.692Z,15
2017-03-07T11:51:36.702Z,15
2017-03-07T11:52:36.622Z,15
2017-03-07T11:53:36.757Z,15
2017-03-07T11:54:36.242Z,15
2017-03-07T11:55:36.766Z,15
2017-03-07T11:56:36.292Z,15
2017-03-07T11:57:36.786Z,15
2017-03-07T11:58:36.799Z,15
2017-03-07T11:59:36.327Z,15
2017-03-07T12:00:36.334Z,15
2017-03-07T12:01:36.370Z,15
2017-03-07T12:02:36.380Z,15
2017-03-07T12:03:35.989Z,10
2017-03-07T12:04:36.854Z,15
2017-03-07T12:05:36.400Z,15
2017-03-07T12:06:36.474Z,15
2017-03-07T12:07:36.450Z,15
2017-03-07T12:08:36.456Z,15
2017-03-07T12:09:36.602Z,15
2017-03-07T12:10:36.998Z,15
2017-03-07T12:11:36.500Z,15
2017-03-07T12:12:36.503Z,15
2017-03-07T12:13:36.586Z,15
2017-03-07T12:14:36.597Z,10
2017-03-07T12:15:36.618Z,10
2017-03-07T12:16:37.147Z,10
2017-03-07T12:17:37.156Z,10
2017-03-07T12:18:37.160Z,10
2017-03-07T12:19:37.164Z,10
2017-03-07T12:20:36.638Z,10
2017-03-07T12:21:37.125Z,10
2017-03-07T12:22:36.667Z,10
2017-03-07T12:23:36.270Z,10
2017-03-07T12:24:37.220Z,10
2017-03-07T12:25:37.353Z,10
2017-03-07T12:26:36.894Z,10
2017-03-07T12:27:36.752Z,10
2017-03-07T12:28:37.282Z,10
2017-03-07T12:29:36.760Z,10
2017-03-07T12:30:37.289Z,10
2017-03-07T12:31:36.791Z,10
2017-03-07T12:32:37.392Z,10
2017-03-07T12:33:37.864Z,10
2017-03-07T12:34:37.415Z,10
2017-03-07T12:35:37.272Z,10
2017-03-07T12:36:37.363Z,15
2017-03-07T12:37:37.266Z,15
2017-03-07T12:38:37.369Z,10
2017-03-07T12:39:37.316Z,10
2017-03-07T12:40:36.182Z,10
2017-03-07T12:41:36.703Z,10
2017-03-07T12:42:36.957Z,10
2017-03-07T12:43:37.349Z,15
2017-03-07T12:44:37.381Z,15
2017-03-07T12:45:37.369Z,15
2017-03-07T12:46:37.393Z,15
2017-03-07T12:47:36.619Z,15
2017-03-07T12:48:37.408Z,20
2017-03-07T12:49:37.436Z,20
2017-03-07T12:50:37.064Z,20
2017-03-07T12:51:37.464Z,25
2017-03-07T12:52:37.071Z,20
2017-03-07T12:53:37.084Z,20
2017-03-07T12:54:36.710Z,20
2017-03-07T12:55:37.533Z,20
2017-03-07T12:56:37.573Z,20
2017-03-07T12:57:37.584Z,20
2017-03-07T12:58:37.558Z,20
2017-03-07T12:59:37.568Z,20
2017-03-07T13:00:37.583Z,20
2017-03-07T13:01:37.621Z,15
2017-03-07T13:02:37.629Z,15
2017-03-07T13:03:37.630Z,10
2017-03-07T13:04:37.652Z,15
2017-03-07T13:05:37.255Z,15
2017-03-07T13:06:37.669Z,15
2017-03-07T13:07:37.697Z,15
2017-03-07T13:08:37.699Z,15
2017-03-07T13:09:37.719Z,15
2017-03-07T13:11:50.528Z,15
2017-03-07T13:12:02.329Z,15
2017-03-07T13:13:01.645Z,15
2017-03-07T13:14:01.850Z,15
2017-03-07T13:15:01.673Z,15
2017-03-07T13:16:01.941Z,15
2017-03-07T13:17:01.286Z,15
2017-03-07T13:18:01.835Z,20
2017-03-07T13:19:01.238Z,15
2017-03-07T13:20:01.626Z,15
2017-03-07T13:21:01.637Z,15
2017-03-07T13:22:01.643Z,15
2017-03-07T13:23:01.274Z,15
2017-03-07T13:24:01.653Z,15
2017-03-07T13:25:01.852Z,15
2017-03-07T13:26:01.749Z,15
2017-03-07T13:27:01.738Z,15
2017-03-07T13:28:01.753Z,15
2017-03-07T13:29:01.753Z,15
2017-03-07T13:30:01.769Z,15
2017-03-07T13:31:01.762Z,15
2017-03-07T13:32:01.364Z,20
2017-03-07T13:33:01.693Z,15
2017-03-07T13:34:14.080Z,15
2017-03-07T13:35:01.340Z,10
2017-03-07T13:36:01.802Z,10
2017-03-07T13:37:01.875Z,10
2017-03-07T13:38:01.371Z,10
2017-03-07T13:39:01.874Z,10
2017-03-07T13:40:01.878Z,10
2017-03-07T13:41:01.899Z,10
2017-03-07T13:42:02.021Z,10
2017-03-07T13:43:01.504Z,10
2017-03-07T13:44:02.036Z,10
2017-03-07T13:45:02.043Z,10
2017-03-07T13:46:02.051Z,10
2017-03-07T13:47:02.011Z,10
2017-03-07T13:48:02.029Z,10
2017-03-07T13:49:02.068Z,10
2017-03-07T13:50:02.056Z,10
2017-03-07T13:51:02.069Z,10
2017-03-07T13:52:02.082Z,10
2017-03-07T13:53:01.688Z,10
2017-03-07T13:54:02.161Z,10
2017-03-07T13:55:02.151Z,5
2017-03-07T13:56:02.156Z,10
2017-03-07T13:57:02.159Z,10
2017-03-07T13:58:02.168Z,10
2017-03-07T13:59:02.177Z,10
2017-03-07T14:00:02.184Z,10
2017-03-07T14:01:02.194Z,10
2017-03-07T14:02:02.200Z,10
2017-03-07T14:03:02.205Z,10
2017-03-07T14:04:02.213Z,10
2017-03-07T14:05:01.834Z,10
2017-03-07T14:06:01.841Z,15
2017-03-07T14:07:02.190Z,10
2017-03-07T14:08:01.599Z,10
2017-03-07T14:09:02.230Z,10
2017-03-07T14:10:02.035Z,10
2017-03-07T14:11:01.863Z,10
2017-03-07T14:12:02.246Z,10
2017-03-07T14:13:02.282Z,10
2017-03-07T14:14:02.293Z,10
2017-03-07T14:15:02.304Z,10
2017-03-07T14:16:02.361Z,10
2017-03-07T14:17:02.353Z,10
2017-03-07T14:18:02.344Z,10
2017-03-07T14:19:02.354Z,15
2017-03-07T14:20:02.381Z,10
2017-03-07T14:21:02.011Z,10
2017-03-07T14:22:02.408Z,15
2017-03-07T14:23:02.134Z,15
2017-03-07T14:24:02.475Z,15
2017-03-07T14:25:02.037Z,15
2017-03-07T14:26:02.058Z,15
2017-03-07T14:27:02.171Z,15
2017-03-07T14:28:02.082Z,15
2017-03-07T14:29:02.523Z,15
2017-03-07T14:30:02.127Z,15
2017-03-07T14:31:02.188Z,15
2017-03-07T14:32:02.553Z,15
2017-03-07T14:33:02.561Z,10
2017-03-07T14:34:02.577Z,10
2017-03-07T14:35:02.233Z,10
2017-03-07T14:36:02.611Z,15
2017-03-07T14:37:02.218Z,15